sensor_id;sensor_type;location;lat;lon;timestamp;P1;durP1;ratioP1;P2;durP2;ratioP2
19187;SDS011;9726;52.198;8.792;2024-01-10T00:02:20;28.43;;;10.33;;
19187;SDS011;9726;52.198;8.792;2024-01-10T00:04:48;25.70;;;9.80;;
19187;SDS011;9726;52.198;8.792;2024-01-10T00:07:18;25.17;;;11.13;;
19187;SDS011;9726;52.198;8.792;2024-01-10T00:09:45;37.23;;;10.70;;
19187;SDS011;9726;52.198;8.792;2024-01-10T00:12:13;29.30;;;10.50;;
19187;SDS011;9726;52.198;8.792;2024-01-10T00:14:40;22.00;;;11.93;;
19187;SDS011;9726;52.198;8.792;2024-01-10T00:17:08;22.20;;;11.53;;
19187;SDS011;9726;52.198;8.792;2024-01-10T00:19:36;25.10;;;10.67;;
19187;SDS011;9726;52.198;8.792;2024-01-10T00:22:04;27.23;;;11.77;;
19187;SDS011;9726;52.198;8.792;2024-01-10T00:24:31;30.70;;;12.03;;
19187;SDS011;9726;52.198;8.792;2024-01-10T00:26:59;25.63;;;10.90;;
19187;SDS011;9726;52.198;8.792;2024-01-10T00:29:26;26.43;;;10.23;;
19187;SDS011;9726;52.198;8.792;2024-01-10T00:31:54;29.20;;;11.53;;
19187;SDS011;9726;52.198;8.792;2024-01-10T00:34:25;26.40;;;11.83;;
19187;SDS011;9726;52.198;8.792;2024-01-10T00:36:53;18.73;;;10.27;;
19187;SDS011;9726;52.198;8.792;2024-01-10T00:39:20;31.17;;;11.23;;
19187;SDS011;9726;52.198;8.792;2024-01-10T00:41:48;24.53;;;11.50;;
19187;SDS011;9726;52.198;8.792;2024-01-10T00:44:16;27.57;;;10.20;;
19187;SDS011;9726;52.198;8.792;2024-01-10T00:46:43;22.73;;;10.17;;
19187;SDS011;9726;52.198;8.792;2024-01-10T00:49:11;29.77;;;12.00;;
19187;SDS011;9726;52.198;8.792;2024-01-10T00:51:39;22.30;;;10.53;;
19187;SDS011;9726;52.198;8.792;2024-01-10T00:54:06;31.07;;;10.47;;
19187;SDS011;9726;52.198;8.792;2024-01-10T00:56:34;24.37;;;10.27;;
19187;SDS011;9726;52.198;8.792;2024-01-10T00:59:01;24.00;;;10.67;;
19187;SDS011;9726;52.198;8.792;2024-01-10T01:01:29;25.07;;;10.67;;
19187;SDS011;9726;52.198;8.792;2024-01-10T01:03:57;21.77;;;10.30;;
19187;SDS011;9726;52.198;8.792;2024-01-10T01:06:24;30.23;;;11.97;;
19187;SDS011;9726;52.198;8.792;2024-01-10T01:08:51;22.03;;;9.57;;
19187;SDS011;9726;52.198;8.792;2024-01-10T01:11:19;26.93;;;10.07;;
19187;SDS011;9726;52.198;8.792;2024-01-10T01:13:47;30.37;;;10.83;;
19187;SDS011;9726;52.198;8.792;2024-01-10T01:16:14;26.10;;;10.53;;
19187;SDS011;9726;52.198;8.792;2024-01-10T01:18:42;29.33;;;10.80;;
19187;SDS011;9726;52.198;8.792;2024-01-10T01:21:11;30.07;;;10.87;;
19187;SDS011;9726;52.198;8.792;2024-01-10T01:23:39;28.97;;;11.57;;
19187;SDS011;9726;52.198;8.792;2024-01-10T01:26:08;26.90;;;9.93;;
19187;SDS011;9726;52.198;8.792;2024-01-10T01:28:36;23.90;;;11.57;;
19187;SDS011;9726;52.198;8.792;2024-01-10T01:31:04;33.07;;;11.13;;
19187;SDS011;9726;52.198;8.792;2024-01-10T01:33:31;24.10;;;11.13;;
19187;SDS011;9726;52.198;8.792;2024-01-10T01:35:59;24.90;;;10.00;;
19187;SDS011;9726;52.198;8.792;2024-01-10T01:38:26;35.97;;;12.67;;
19187;SDS011;9726;52.198;8.792;2024-01-10T01:40:54;30.87;;;10.47;;
19187;SDS011;9726;52.198;8.792;2024-01-10T01:43:22;25.77;;;11.37;;
19187;SDS011;9726;52.198;8.792;2024-01-10T01:45:51;20.90;;;10.97;;
19187;SDS011;9726;52.198;8.792;2024-01-10T01:48:20;24.30;;;10.67;;
19187;SDS011;9726;52.198;8.792;2024-01-10T01:50:49;28.60;;;11.50;;
19187;SDS011;9726;52.198;8.792;2024-01-10T01:53:17;25.00;;;10.67;;
19187;SDS011;9726;52.198;8.792;2024-01-10T01:55:46;29.33;;;10.90;;
19187;SDS011;9726;52.198;8.792;2024-01-10T01:58:14;26.33;;;10.50;;
19187;SDS011;9726;52.198;8.792;2024-01-10T02:00:41;27.50;;;11.37;;
19187;SDS011;9726;52.198;8.792;2024-01-10T02:03:10;19.40;;;10.37;;
19187;SDS011;9726;52.198;8.792;2024-01-10T02:05:38;23.43;;;10.03;;
19187;SDS011;9726;52.198;8.792;2024-01-10T02:08:05;27.10;;;13.03;;
19187;SDS011;9726;52.198;8.792;2024-01-10T02:10:33;27.07;;;11.20;;
19187;SDS011;9726;52.198;8.792;2024-01-10T02:13:01;31.10;;;12.23;;
19187;SDS011;9726;52.198;8.792;2024-01-10T02:15:29;22.10;;;10.13;;
19187;SDS011;9726;52.198;8.792;2024-01-10T02:17:56;33.87;;;12.30;;
19187;SDS011;9726;52.198;8.792;2024-01-10T02:20:24;34.97;;;13.13;;
19187;SDS011;9726;52.198;8.792;2024-01-10T02:22:52;30.53;;;13.83;;
19187;SDS011;9726;52.198;8.792;2024-01-10T02:25:20;32.67;;;12.80;;
19187;SDS011;9726;52.198;8.792;2024-01-10T02:27:48;34.00;;;12.50;;
19187;SDS011;9726;52.198;8.792;2024-01-10T02:30:15;31.07;;;11.87;;
19187;SDS011;9726;52.198;8.792;2024-01-10T02:32:43;25.33;;;11.63;;
19187;SDS011;9726;52.198;8.792;2024-01-10T02:35:11;33.37;;;12.73;;
19187;SDS011;9726;52.198;8.792;2024-01-10T02:37:38;31.03;;;11.47;;
19187;SDS011;9726;52.198;8.792;2024-01-10T02:40:06;33.57;;;12.73;;
19187;SDS011;9726;52.198;8.792;2024-01-10T02:42:34;29.03;;;10.87;;
19187;SDS011;9726;52.198;8.792;2024-01-10T02:45:02;33.53;;;12.60;;
19187;SDS011;9726;52.198;8.792;2024-01-10T02:47:29;35.87;;;12.83;;
19187;SDS011;9726;52.198;8.792;2024-01-10T02:49:57;30.17;;;12.57;;
19187;SDS011;9726;52.198;8.792;2024-01-10T02:52:24;36.73;;;13.07;;
19187;SDS011;9726;52.198;8.792;2024-01-10T02:54:52;23.33;;;11.03;;
19187;SDS011;9726;52.198;8.792;2024-01-10T02:57:20;38.97;;;13.83;;
19187;SDS011;9726;52.198;8.792;2024-01-10T02:59:47;36.17;;;13.20;;
19187;SDS011;9726;52.198;8.792;2024-01-10T03:02:15;27.40;;;11.23;;
19187;SDS011;9726;52.198;8.792;2024-01-10T03:04:43;31.13;;;11.60;;
19187;SDS011;9726;52.198;8.792;2024-01-10T03:07:11;32.73;;;11.83;;
19187;SDS011;9726;52.198;8.792;2024-01-10T03:09:38;29.90;;;11.40;;
19187;SDS011;9726;52.198;8.792;2024-01-10T03:12:06;22.17;;;11.70;;
19187;SDS011;9726;52.198;8.792;2024-01-10T03:14:33;27.60;;;12.70;;
19187;SDS011;9726;52.198;8.792;2024-01-10T03:17:01;33.17;;;13.30;;
19187;SDS011;9726;52.198;8.792;2024-01-10T03:19:29;36.23;;;14.13;;
19187;SDS011;9726;52.198;8.792;2024-01-10T03:21:56;24.30;;;11.30;;
19187;SDS011;9726;52.198;8.792;2024-01-10T03:24:24;26.33;;;12.43;;
19187;SDS011;9726;52.198;8.792;2024-01-10T03:26:53;39.60;;;12.70;;
19187;SDS011;9726;52.198;8.792;2024-01-10T03:29:21;26.73;;;12.67;;
19187;SDS011;9726;52.198;8.792;2024-01-10T03:31:49;35.30;;;11.63;;
19187;SDS011;9726;52.198;8.792;2024-01-10T03:34:16;30.87;;;11.77;;
19187;SDS011;9726;52.198;8.792;2024-01-10T03:36:44;25.00;;;12.13;;
19187;SDS011;9726;52.198;8.792;2024-01-10T03:39:12;22.33;;;11.33;;
19187;SDS011;9726;52.198;8.792;2024-01-10T03:41:40;25.30;;;10.27;;
19187;SDS011;9726;52.198;8.792;2024-01-10T03:44:07;29.57;;;13.07;;
19187;SDS011;9726;52.198;8.792;2024-01-10T03:46:35;30.23;;;11.73;;
19187;SDS011;9726;52.198;8.792;2024-01-10T03:49:02;34.90;;;13.10;;
19187;SDS011;9726;52.198;8.792;2024-01-10T03:51:30;34.27;;;12.67;;
19187;SDS011;9726;52.198;8.792;2024-01-10T03:53:58;27.93;;;11.43;;
19187;SDS011;9726;52.198;8.792;2024-01-10T03:56:25;38.23;;;12.93;;
19187;SDS011;9726;52.198;8.792;2024-01-10T03:58:53;31.17;;;12.53;;
19187;SDS011;9726;52.198;8.792;2024-01-10T04:01:23;34.60;;;13.70;;
19187;SDS011;9726;52.198;8.792;2024-01-10T04:03:51;39.13;;;12.27;;
19187;SDS011;9726;52.198;8.792;2024-01-10T04:06:18;33.83;;;12.00;;
19187;SDS011;9726;52.198;8.792;2024-01-10T04:08:46;32.93;;;12.37;;
19187;SDS011;9726;52.198;8.792;2024-01-10T04:11:14;32.33;;;14.03;;
19187;SDS011;9726;52.198;8.792;2024-01-10T04:13:42;25.30;;;12.03;;
19187;SDS011;9726;52.198;8.792;2024-01-10T04:16:11;34.40;;;13.63;;
19187;SDS011;9726;52.198;8.792;2024-01-10T04:18:39;43.03;;;14.83;;
19187;SDS011;9726;52.198;8.792;2024-01-10T04:21:07;30.30;;;12.77;;
19187;SDS011;9726;52.198;8.792;2024-01-10T04:23:35;38.63;;;13.30;;
19187;SDS011;9726;52.198;8.792;2024-01-10T04:26:03;26.13;;;13.57;;
19187;SDS011;9726;52.198;8.792;2024-01-10T04:28:30;30.77;;;11.17;;
19187;SDS011;9726;52.198;8.792;2024-01-10T04:30:58;27.50;;;13.17;;
19187;SDS011;9726;52.198;8.792;2024-01-10T04:33:26;35.50;;;14.70;;
19187;SDS011;9726;52.198;8.792;2024-01-10T04:35:53;31.43;;;14.97;;
19187;SDS011;9726;52.198;8.792;2024-01-10T04:38:21;38.57;;;14.63;;
19187;SDS011;9726;52.198;8.792;2024-01-10T04:40:52;34.37;;;14.83;;
19187;SDS011;9726;52.198;8.792;2024-01-10T04:43:20;30.73;;;14.97;;
19187;SDS011;9726;52.198;8.792;2024-01-10T04:45:47;25.90;;;10.83;;
19187;SDS011;9726;52.198;8.792;2024-01-10T04:48:15;27.40;;;13.07;;
19187;SDS011;9726;52.198;8.792;2024-01-10T04:50:42;39.87;;;13.43;;
19187;SDS011;9726;52.198;8.792;2024-01-10T04:53:10;36.27;;;14.00;;
19187;SDS011;9726;52.198;8.792;2024-01-10T04:55:38;43.97;;;14.83;;
19187;SDS011;9726;52.198;8.792;2024-01-10T04:58:05;28.30;;;14.07;;
19187;SDS011;9726;52.198;8.792;2024-01-10T05:00:33;31.27;;;14.10;;
19187;SDS011;9726;52.198;8.792;2024-01-10T05:03:00;48.43;;;17.27;;
19187;SDS011;9726;52.198;8.792;2024-01-10T05:05:28;39.70;;;16.97;;
19187;SDS011;9726;52.198;8.792;2024-01-10T05:07:56;39.47;;;15.37;;
19187;SDS011;9726;52.198;8.792;2024-01-10T05:10:24;34.80;;;14.97;;
19187;SDS011;9726;52.198;8.792;2024-01-10T05:12:51;36.40;;;14.73;;
19187;SDS011;9726;52.198;8.792;2024-01-10T05:15:19;29.27;;;14.43;;
19187;SDS011;9726;52.198;8.792;2024-01-10T05:17:48;35.43;;;16.73;;
19187;SDS011;9726;52.198;8.792;2024-01-10T05:20:17;32.80;;;14.33;;
19187;SDS011;9726;52.198;8.792;2024-01-10T05:22:45;34.67;;;15.23;;
19187;SDS011;9726;52.198;8.792;2024-01-10T05:25:14;29.57;;;13.80;;
19187;SDS011;9726;52.198;8.792;2024-01-10T05:27:45;36.50;;;15.83;;
19187;SDS011;9726;52.198;8.792;2024-01-10T05:30:13;25.93;;;12.63;;
19187;SDS011;9726;52.198;8.792;2024-01-10T05:32:40;41.23;;;15.13;;
19187;SDS011;9726;52.198;8.792;2024-01-10T05:35:08;36.77;;;17.97;;
19187;SDS011;9726;52.198;8.792;2024-01-10T05:37:37;37.43;;;15.73;;
19187;SDS011;9726;52.198;8.792;2024-01-10T05:40:04;36.13;;;16.20;;
19187;SDS011;9726;52.198;8.792;2024-01-10T05:42:32;46.60;;;16.70;;
19187;SDS011;9726;52.198;8.792;2024-01-10T05:45:00;37.33;;;15.60;;
19187;SDS011;9726;52.198;8.792;2024-01-10T05:47:28;46.67;;;15.23;;
19187;SDS011;9726;52.198;8.792;2024-01-10T05:49:56;42.03;;;14.50;;
19187;SDS011;9726;52.198;8.792;2024-01-10T05:52:24;72.60;;;19.30;;
19187;SDS011;9726;52.198;8.792;2024-01-10T05:54:52;47.93;;;18.30;;
19187;SDS011;9726;52.198;8.792;2024-01-10T05:57:20;46.43;;;16.83;;
19187;SDS011;9726;52.198;8.792;2024-01-10T05:59:48;55.83;;;18.93;;
19187;SDS011;9726;52.198;8.792;2024-01-10T06:02:15;40.73;;;16.23;;
19187;SDS011;9726;52.198;8.792;2024-01-10T06:04:44;37.13;;;18.17;;
19187;SDS011;9726;52.198;8.792;2024-01-10T06:07:11;46.93;;;15.63;;
19187;SDS011;9726;52.198;8.792;2024-01-10T06:09:38;44.33;;;16.07;;
19187;SDS011;9726;52.198;8.792;2024-01-10T06:12:06;31.00;;;14.00;;
19187;SDS011;9726;52.198;8.792;2024-01-10T06:14:34;38.87;;;16.10;;
19187;SDS011;9726;52.198;8.792;2024-01-10T06:17:01;38.00;;;17.40;;
19187;SDS011;9726;52.198;8.792;2024-01-10T06:19:30;38.07;;;16.63;;
19187;SDS011;9726;52.198;8.792;2024-01-10T06:21:58;38.23;;;16.10;;
19187;SDS011;9726;52.198;8.792;2024-01-10T06:24:26;43.33;;;17.17;;
19187;SDS011;9726;52.198;8.792;2024-01-10T06:26:54;36.93;;;15.83;;
19187;SDS011;9726;52.198;8.792;2024-01-10T06:29:22;30.37;;;15.47;;
19187;SDS011;9726;52.198;8.792;2024-01-10T06:31:50;40.43;;;15.77;;
19187;SDS011;9726;52.198;8.792;2024-01-10T06:34:17;42.70;;;15.83;;
19187;SDS011;9726;52.198;8.792;2024-01-10T06:36:45;34.50;;;15.63;;
19187;SDS011;9726;52.198;8.792;2024-01-10T06:39:12;47.33;;;18.10;;
19187;SDS011;9726;52.198;8.792;2024-01-10T06:41:40;36.73;;;16.87;;
19187;SDS011;9726;52.198;8.792;2024-01-10T06:44:10;37.70;;;15.03;;
19187;SDS011;9726;52.198;8.792;2024-01-10T06:46:38;40.97;;;15.87;;
19187;SDS011;9726;52.198;8.792;2024-01-10T06:49:06;38.20;;;16.80;;
19187;SDS011;9726;52.198;8.792;2024-01-10T06:51:33;38.53;;;16.20;;
19187;SDS011;9726;52.198;8.792;2024-01-10T06:54:01;40.50;;;15.30;;
19187;SDS011;9726;52.198;8.792;2024-01-10T06:56:30;38.63;;;16.77;;
19187;SDS011;9726;52.198;8.792;2024-01-10T06:58:59;46.60;;;16.47;;
19187;SDS011;9726;52.198;8.792;2024-01-10T07:01:27;44.83;;;18.07;;
19187;SDS011;9726;52.198;8.792;2024-01-10T07:03:54;38.70;;;15.50;;
19187;SDS011;9726;52.198;8.792;2024-01-10T07:06:22;45.23;;;17.73;;
19187;SDS011;9726;52.198;8.792;2024-01-10T07:08:50;43.83;;;16.17;;
19187;SDS011;9726;52.198;8.792;2024-01-10T07:11:18;37.40;;;15.87;;
19187;SDS011;9726;52.198;8.792;2024-01-10T07:13:46;48.37;;;18.27;;
19187;SDS011;9726;52.198;8.792;2024-01-10T07:16:14;48.83;;;16.47;;
19187;SDS011;9726;52.198;8.792;2024-01-10T07:18:43;38.63;;;16.37;;
19187;SDS011;9726;52.198;8.792;2024-01-10T07:21:12;39.90;;;16.20;;
19187;SDS011;9726;52.198;8.792;2024-01-10T07:23:39;50.70;;;18.30;;
19187;SDS011;9726;52.198;8.792;2024-01-10T07:26:09;44.43;;;16.33;;
19187;SDS011;9726;52.198;8.792;2024-01-10T07:28:37;48.70;;;19.13;;
19187;SDS011;9726;52.198;8.792;2024-01-10T07:31:05;44.63;;;17.33;;
19187;SDS011;9726;52.198;8.792;2024-01-10T07:33:32;41.53;;;18.07;;
19187;SDS011;9726;52.198;8.792;2024-01-10T07:36:00;47.47;;;18.73;;
19187;SDS011;9726;52.198;8.792;2024-01-10T07:38:28;50.27;;;17.87;;
19187;SDS011;9726;52.198;8.792;2024-01-10T07:40:56;36.20;;;16.53;;
19187;SDS011;9726;52.198;8.792;2024-01-10T07:43:25;47.30;;;18.60;;
19187;SDS011;9726;52.198;8.792;2024-01-10T07:45:53;56.83;;;20.07;;
19187;SDS011;9726;52.198;8.792;2024-01-10T07:48:21;44.77;;;16.87;;
19187;SDS011;9726;52.198;8.792;2024-01-10T07:50:49;56.30;;;20.23;;
19187;SDS011;9726;52.198;8.792;2024-01-10T07:53:16;45.23;;;18.73;;
19187;SDS011;9726;52.198;8.792;2024-01-10T07:55:44;48.60;;;18.57;;
19187;SDS011;9726;52.198;8.792;2024-01-10T07:58:12;54.77;;;19.33;;
19187;SDS011;9726;52.198;8.792;2024-01-10T08:00:39;47.90;;;18.10;;
19187;SDS011;9726;52.198;8.792;2024-01-10T08:03:08;57.13;;;20.70;;
19187;SDS011;9726;52.198;8.792;2024-01-10T08:05:36;45.37;;;19.30;;
19187;SDS011;9726;52.198;8.792;2024-01-10T08:08:04;56.63;;;18.57;;
19187;SDS011;9726;52.198;8.792;2024-01-10T08:10:32;45.10;;;18.47;;
19187;SDS011;9726;52.198;8.792;2024-01-10T08:13:02;59.73;;;20.63;;
19187;SDS011;9726;52.198;8.792;2024-01-10T08:15:30;51.27;;;20.97;;
19187;SDS011;9726;52.198;8.792;2024-01-10T08:18:05;51.17;;;19.60;;
19187;SDS011;9726;52.198;8.792;2024-01-10T08:20:34;59.20;;;18.30;;
19187;SDS011;9726;52.198;8.792;2024-01-10T08:23:02;40.60;;;16.83;;
19187;SDS011;9726;52.198;8.792;2024-01-10T08:25:31;45.63;;;17.93;;
19187;SDS011;9726;52.198;8.792;2024-01-10T08:27:59;50.30;;;17.43;;
19187;SDS011;9726;52.198;8.792;2024-01-10T08:30:27;43.37;;;18.20;;
19187;SDS011;9726;52.198;8.792;2024-01-10T08:32:55;45.67;;;19.87;;
19187;SDS011;9726;52.198;8.792;2024-01-10T08:35:23;44.30;;;18.70;;
19187;SDS011;9726;52.198;8.792;2024-01-10T08:37:54;45.53;;;18.27;;
19187;SDS011;9726;52.198;8.792;2024-01-10T08:40:22;53.17;;;18.67;;
19187;SDS011;9726;52.198;8.792;2024-01-10T08:42:52;53.83;;;20.27;;
19187;SDS011;9726;52.198;8.792;2024-01-10T08:45:19;50.23;;;19.70;;
19187;SDS011;9726;52.198;8.792;2024-01-10T08:47:47;49.07;;;18.47;;
19187;SDS011;9726;52.198;8.792;2024-01-10T08:50:14;47.10;;;19.90;;
19187;SDS011;9726;52.198;8.792;2024-01-10T08:52:43;58.47;;;20.43;;
19187;SDS011;9726;52.198;8.792;2024-01-10T08:55:10;58.97;;;22.07;;
19187;SDS011;9726;52.198;8.792;2024-01-10T08:57:40;49.87;;;20.67;;
19187;SDS011;9726;52.198;8.792;2024-01-10T09:00:07;55.43;;;21.90;;
19187;SDS011;9726;52.198;8.792;2024-01-10T09:02:38;54.53;;;21.50;;
19187;SDS011;9726;52.198;8.792;2024-01-10T09:05:06;55.10;;;19.57;;
19187;SDS011;9726;52.198;8.792;2024-01-10T09:07:36;52.67;;;19.03;;
19187;SDS011;9726;52.198;8.792;2024-01-10T09:10:04;51.33;;;19.23;;
19187;SDS011;9726;52.198;8.792;2024-01-10T09:12:34;52.30;;;21.70;;
19187;SDS011;9726;52.198;8.792;2024-01-10T09:15:02;45.27;;;20.67;;
19187;SDS011;9726;52.198;8.792;2024-01-10T09:17:30;41.87;;;19.93;;
19187;SDS011;9726;52.198;8.792;2024-01-10T09:19:57;50.87;;;20.00;;
19187;SDS011;9726;52.198;8.792;2024-01-10T09:22:25;56.90;;;19.00;;
19187;SDS011;9726;52.198;8.792;2024-01-10T09:24:52;48.53;;;19.63;;
19187;SDS011;9726;52.198;8.792;2024-01-10T09:27:20;54.17;;;19.83;;
19187;SDS011;9726;52.198;8.792;2024-01-10T09:29:49;41.97;;;17.63;;
19187;SDS011;9726;52.198;8.792;2024-01-10T09:32:17;47.93;;;20.30;;
19187;SDS011;9726;52.198;8.792;2024-01-10T09:34:45;34.07;;;17.40;;
19187;SDS011;9726;52.198;8.792;2024-01-10T09:37:13;39.77;;;18.73;;
19187;SDS011;9726;52.198;8.792;2024-01-10T09:39:41;53.97;;;20.53;;
19187;SDS011;9726;52.198;8.792;2024-01-10T09:42:09;53.07;;;20.00;;
19187;SDS011;9726;52.198;8.792;2024-01-10T09:44:36;49.03;;;20.57;;
19187;SDS011;9726;52.198;8.792;2024-01-10T09:47:04;53.20;;;19.50;;
19187;SDS011;9726;52.198;8.792;2024-01-10T09:49:31;47.67;;;17.70;;
19187;SDS011;9726;52.198;8.792;2024-01-10T09:52:02;51.87;;;21.17;;
19187;SDS011;9726;52.198;8.792;2024-01-10T09:54:31;43.97;;;18.57;;
19187;SDS011;9726;52.198;8.792;2024-01-10T09:56:58;47.40;;;19.80;;
19187;SDS011;9726;52.198;8.792;2024-01-10T09:59:26;62.07;;;21.27;;
19187;SDS011;9726;52.198;8.792;2024-01-10T10:01:54;61.03;;;20.70;;
19187;SDS011;9726;52.198;8.792;2024-01-10T10:04:23;53.97;;;21.03;;
19187;SDS011;9726;52.198;8.792;2024-01-10T10:07:00;63.23;;;25.63;;
19187;SDS011;9726;52.198;8.792;2024-01-10T10:09:28;42.23;;;19.03;;
19187;SDS011;9726;52.198;8.792;2024-01-10T10:11:56;47.30;;;20.07;;
19187;SDS011;9726;52.198;8.792;2024-01-10T10:14:26;46.87;;;21.00;;
19187;SDS011;9726;52.198;8.792;2024-01-10T10:16:55;58.27;;;22.53;;
19187;SDS011;9726;52.198;8.792;2024-01-10T10:19:23;56.07;;;19.03;;
19187;SDS011;9726;52.198;8.792;2024-01-10T10:22:09;47.93;;;18.90;;
19187;SDS011;9726;52.198;8.792;2024-01-10T10:24:37;49.77;;;19.67;;
19187;SDS011;9726;52.198;8.792;2024-01-10T10:27:09;47.93;;;18.83;;
19187;SDS011;9726;52.198;8.792;2024-01-10T10:29:38;49.27;;;21.43;;
19187;SDS011;9726;52.198;8.792;2024-01-10T10:32:06;53.80;;;17.83;;
19187;SDS011;9726;52.198;8.792;2024-01-10T10:34:35;51.23;;;21.97;;
19187;SDS011;9726;52.198;8.792;2024-01-10T10:37:03;53.10;;;21.23;;
19187;SDS011;9726;52.198;8.792;2024-01-10T10:39:31;52.50;;;20.63;;
19187;SDS011;9726;52.198;8.792;2024-01-10T10:41:58;50.67;;;20.80;;
19187;SDS011;9726;52.198;8.792;2024-01-10T10:44:27;62.20;;;22.37;;
19187;SDS011;9726;52.198;8.792;2024-01-10T10:46:56;47.30;;;20.80;;
19187;SDS011;9726;52.198;8.792;2024-01-10T10:49:40;51.90;;;21.20;;
19187;SDS011;9726;52.198;8.792;2024-01-10T10:52:12;46.27;;;18.70;;
19187;SDS011;9726;52.198;8.792;2024-01-10T10:54:40;54.30;;;19.63;;
19187;SDS011;9726;52.198;8.792;2024-01-10T10:57:08;61.90;;;23.23;;
19187;SDS011;9726;52.198;8.792;2024-01-10T10:59:36;49.23;;;19.83;;
19187;SDS011;9726;52.198;8.792;2024-01-10T11:02:05;54.13;;;20.20;;
19187;SDS011;9726;52.198;8.792;2024-01-10T11:04:36;59.60;;;20.27;;
19187;SDS011;9726;52.198;8.792;2024-01-10T11:07:04;58.17;;;21.27;;
19187;SDS011;9726;52.198;8.792;2024-01-10T11:09:32;62.70;;;21.80;;
19187;SDS011;9726;52.198;8.792;2024-01-10T11:12:14;56.47;;;21.47;;
19187;SDS011;9726;52.198;8.792;2024-01-10T11:20:31;56.60;;;23.13;;
19187;SDS011;9726;52.198;8.792;2024-01-10T11:23:49;56.87;;;22.80;;
19187;SDS011;9726;52.198;8.792;2024-01-10T11:25:51;58.37;;;22.57;;
19187;SDS011;9726;52.198;8.792;2024-01-10T11:28:19;50.43;;;20.17;;
19187;SDS011;9726;52.198;8.792;2024-01-10T11:30:50;63.53;;;23.10;;
19187;SDS011;9726;52.198;8.792;2024-01-10T11:33:33;47.97;;;22.23;;
19187;SDS011;9726;52.198;8.792;2024-01-10T11:41:20;63.87;;;22.07;;
19187;SDS011;9726;52.198;8.792;2024-01-10T11:46:49;55.03;;;22.17;;
19187;SDS011;9726;52.198;8.792;2024-01-10T11:49:17;57.40;;;21.07;;
19187;SDS011;9726;52.198;8.792;2024-01-10T11:51:46;69.90;;;23.03;;
19187;SDS011;9726;52.198;8.792;2024-01-10T11:54:34;65.73;;;23.80;;
19187;SDS011;9726;52.198;8.792;2024-01-10T11:57:11;54.07;;;22.23;;
19187;SDS011;9726;52.198;8.792;2024-01-10T11:59:51;61.93;;;25.07;;
19187;SDS011;9726;52.198;8.792;2024-01-10T12:02:19;65.83;;;24.60;;
19187;SDS011;9726;52.198;8.792;2024-01-10T12:04:47;59.03;;;23.83;;
19187;SDS011;9726;52.198;8.792;2024-01-10T12:07:15;59.03;;;22.60;;
19187;SDS011;9726;52.198;8.792;2024-01-10T12:09:45;69.00;;;23.50;;
19187;SDS011;9726;52.198;8.792;2024-01-10T12:12:13;61.10;;;23.23;;
19187;SDS011;9726;52.198;8.792;2024-01-10T12:14:41;68.47;;;24.10;;
19187;SDS011;9726;52.198;8.792;2024-01-10T12:17:10;68.90;;;26.10;;
19187;SDS011;9726;52.198;8.792;2024-01-10T12:19:38;63.67;;;23.43;;
19187;SDS011;9726;52.198;8.792;2024-01-10T12:22:05;63.33;;;24.83;;
19187;SDS011;9726;52.198;8.792;2024-01-10T12:24:43;68.90;;;24.43;;
19187;SDS011;9726;52.198;8.792;2024-01-10T12:27:12;64.83;;;23.73;;
19187;SDS011;9726;52.198;8.792;2024-01-10T12:29:39;66.77;;;25.30;;
19187;SDS011;9726;52.198;8.792;2024-01-10T12:32:07;66.43;;;25.20;;
19187;SDS011;9726;52.198;8.792;2024-01-10T12:34:37;60.30;;;21.73;;
19187;SDS011;9726;52.198;8.792;2024-01-10T12:37:05;63.10;;;26.50;;
19187;SDS011;9726;52.198;8.792;2024-01-10T12:39:33;64.93;;;27.70;;
19187;SDS011;9726;52.198;8.792;2024-01-10T12:42:04;66.67;;;25.27;;
19187;SDS011;9726;52.198;8.792;2024-01-10T12:44:32;59.20;;;26.23;;
19187;SDS011;9726;52.198;8.792;2024-01-10T12:47:04;64.80;;;25.07;;
19187;SDS011;9726;52.198;8.792;2024-01-10T12:49:32;71.00;;;25.53;;
19187;SDS011;9726;52.198;8.792;2024-01-10T12:52:00;72.17;;;25.57;;
19187;SDS011;9726;52.198;8.792;2024-01-10T12:54:33;64.80;;;23.07;;
19187;SDS011;9726;52.198;8.792;2024-01-10T12:57:00;70.07;;;24.10;;
19187;SDS011;9726;52.198;8.792;2024-01-10T12:59:28;63.30;;;24.23;;
19187;SDS011;9726;52.198;8.792;2024-01-10T13:01:55;45.90;;;20.93;;
19187;SDS011;9726;52.198;8.792;2024-01-10T13:04:23;73.03;;;24.40;;
19187;SDS011;9726;52.198;8.792;2024-01-10T13:06:52;72.53;;;25.53;;
19187;SDS011;9726;52.198;8.792;2024-01-10T13:09:19;60.17;;;23.20;;
19187;SDS011;9726;52.198;8.792;2024-01-10T13:11:47;73.83;;;25.10;;
19187;SDS011;9726;52.198;8.792;2024-01-10T13:14:14;78.67;;;25.63;;
19187;SDS011;9726;52.198;8.792;2024-01-10T13:16:43;64.87;;;24.10;;
19187;SDS011;9726;52.198;8.792;2024-01-10T13:19:22;64.47;;;23.53;;
19187;SDS011;9726;52.198;8.792;2024-01-10T13:21:50;57.17;;;22.60;;
19187;SDS011;9726;52.198;8.792;2024-01-10T13:24:20;57.20;;;23.73;;
19187;SDS011;9726;52.198;8.792;2024-01-10T13:26:48;64.83;;;25.57;;
19187;SDS011;9726;52.198;8.792;2024-01-10T13:29:16;54.87;;;23.30;;
19187;SDS011;9726;52.198;8.792;2024-01-10T13:31:44;64.67;;;26.20;;
19187;SDS011;9726;52.198;8.792;2024-01-10T13:34:16;64.93;;;21.90;;
19187;SDS011;9726;52.198;8.792;2024-01-10T13:36:44;72.30;;;26.97;;
19187;SDS011;9726;52.198;8.792;2024-01-10T13:39:12;70.20;;;26.30;;
19187;SDS011;9726;52.198;8.792;2024-01-10T13:41:42;69.43;;;26.70;;
19187;SDS011;9726;52.198;8.792;2024-01-10T13:44:10;54.57;;;23.23;;
19187;SDS011;9726;52.198;8.792;2024-01-10T13:46:38;63.67;;;24.67;;
19187;SDS011;9726;52.198;8.792;2024-01-10T13:49:09;67.90;;;26.03;;
19187;SDS011;9726;52.198;8.792;2024-01-10T13:51:38;67.67;;;28.00;;
19187;SDS011;9726;52.198;8.792;2024-01-10T13:54:07;64.47;;;25.17;;
19187;SDS011;9726;52.198;8.792;2024-01-10T13:56:36;62.57;;;26.47;;
19187;SDS011;9726;52.198;8.792;2024-01-10T13:59:06;67.90;;;26.30;;
19187;SDS011;9726;52.198;8.792;2024-01-10T14:01:33;69.10;;;26.67;;
19187;SDS011;9726;52.198;8.792;2024-01-10T14:04:01;66.97;;;25.97;;
19187;SDS011;9726;52.198;8.792;2024-01-10T14:06:29;65.20;;;25.90;;
19187;SDS011;9726;52.198;8.792;2024-01-10T14:08:57;77.53;;;26.37;;
19187;SDS011;9726;52.198;8.792;2024-01-10T14:11:25;69.07;;;26.80;;
19187;SDS011;9726;52.198;8.792;2024-01-10T14:13:54;89.37;;;26.83;;
19187;SDS011;9726;52.198;8.792;2024-01-10T14:16:21;70.63;;;26.30;;
19187;SDS011;9726;52.198;8.792;2024-01-10T14:18:49;81.80;;;27.47;;
19187;SDS011;9726;52.198;8.792;2024-01-10T14:21:17;61.47;;;26.73;;
19187;SDS011;9726;52.198;8.792;2024-01-10T14:23:46;64.13;;;27.30;;
19187;SDS011;9726;52.198;8.792;2024-01-10T14:26:14;68.53;;;23.67;;
19187;SDS011;9726;52.198;8.792;2024-01-10T14:28:43;62.07;;;27.53;;
19187;SDS011;9726;52.198;8.792;2024-01-10T14:31:11;76.83;;;26.53;;
19187;SDS011;9726;52.198;8.792;2024-01-10T14:33:55;71.43;;;26.27;;
19187;SDS011;9726;52.198;8.792;2024-01-10T14:36:24;70.77;;;26.37;;
19187;SDS011;9726;52.198;8.792;2024-01-10T14:38:52;71.40;;;28.83;;
19187;SDS011;9726;52.198;8.792;2024-01-10T14:41:21;61.67;;;25.07;;
19187;SDS011;9726;52.198;8.792;2024-01-10T14:43:50;63.70;;;24.93;;
19187;SDS011;9726;52.198;8.792;2024-01-10T14:46:17;71.83;;;28.07;;
19187;SDS011;9726;52.198;8.792;2024-01-10T14:48:45;74.33;;;28.43;;
19187;SDS011;9726;52.198;8.792;2024-01-10T14:51:13;79.60;;;28.17;;
19187;SDS011;9726;52.198;8.792;2024-01-10T14:53:42;66.87;;;27.60;;
19187;SDS011;9726;52.198;8.792;2024-01-10T14:56:10;72.83;;;26.83;;
19187;SDS011;9726;52.198;8.792;2024-01-10T14:58:41;72.87;;;25.93;;